Time;durP1;ratioP1;P1;durP2;ratioP2;P2;SDS_P1;SDS_P2;PMS_P1;PMS_P2;Temp;Humidity;BMP_temperature;BMP_pressure;BME280_temperature;BME280_humidity;BME280_pressure;Samples;Min_cycle;Max_cycle;Signal;HPM_P1;HPM_P2
2021/09/29 00:00:39;;;;;;;6.95;3.77;;;;;;;8.57;99.73;102002.97;1727565;83;20991;-53
2021/09/29 00:03:06;;;;;;;6.22;3.90;;;;;;;8.56;99.74;101998.65;1727527;83;20975;-53
2021/09/29 00:05:33;;;;;;;5.22;4.12;;;;;;;8.54;99.81;102000.34;1727496;83;20983;-54
2021/09/29 00:07:59;;;;;;;6.78;3.72;;;;;;;8.54;99.81;102002.92;1727556;83;21010;-54
2021/09/29 00:10:28;;;;;;;4.05;3.40;;;;;;;8.54;99.78;102006.80;1727500;82;21031;-54
2021/09/29 00:12:54;;;;;;;7.80;3.80;;;;;;;8.54;99.75;102005.50;1713335;83;21027;-54
2021/09/29 00:15:21;;;;;;;6.75;3.80;;;;;;;8.53;99.76;102005.06;1713223;83;21031;-54
2021/09/29 00:17:47;;;;;;;11.80;3.62;;;;;;;8.52;99.81;102003.73;1733243;81;21495;-54
2021/09/29 00:20:14;;;;;;;8.48;3.90;;;;;;;8.51;99.84;102002.88;1733393;82;21595;-54
2021/09/29 00:22:41;;;;;;;4.00;3.60;;;;;;;8.51;99.81;101992.97;1710170;82;21903;-54
2021/09/29 00:25:09;;;;;;;3.60;3.30;;;;;;;8.51;99.80;102000.30;1733222;82;21464;-53
2021/09/29 00:27:36;;;;;;;5.65;4.20;;;;;;;8.50;99.80;101998.97;1710477;82;21062;-53
2021/09/29 00:30:06;;;;;;;4.50;3.90;;;;;;;8.50;99.78;101998.97;1733103;82;21002;-54
2021/09/29 00:32:37;;;;;;;5.60;4.15;;;;;;;8.49;99.75;101994.22;1733420;82;20995;-54
2021/09/29 00:35:05;;;;;;;4.65;3.50;;;;;;;8.47;99.70;101995.91;1733234;82;21797;-54
2021/09/29 00:37:32;;;;;;;3.60;3.30;;;;;;;8.46;99.63;101998.02;1702275;84;21019;-54
2021/09/29 00:40:00;;;;;;;8.88;3.75;;;;;;;8.46;99.60;101992.85;1733188;82;21041;-54
2021/09/29 00:42:27;;;;;;;4.60;3.47;;;;;;;8.45;99.58;101995.87;1733285;82;21033;-54
2021/09/29 00:44:54;;;;;;;6.65;3.98;;;;;;;8.42;99.61;101990.67;1733074;82;20990;-54
2021/09/29 00:47:20;;;;;;;8.08;4.28;;;;;;;8.42;99.61;101995.83;1733006;82;21111;-54
2021/09/29 00:49:46;;;;;;;7.87;4.25;;;;;;;8.40;99.64;101995.34;1733012;82;21563;-54
2021/09/29 00:52:14;;;;;;;5.20;3.92;;;;;;;8.40;99.61;101993.66;1732677;82;20931;-54
2021/09/29 00:54:41;;;;;;;6.42;3.17;;;;;;;8.40;99.60;101999.22;1732773;82;20939;-54
2021/09/29 00:57:08;;;;;;;8.40;3.30;;;;;;;8.39;99.64;102003.53;1732879;81;21577;-54
2021/09/29 00:59:37;;;;;;;8.75;4.03;;;;;;;8.39;99.66;102006.52;1733207;82;21819;-54
2021/09/29 01:02:04;;;;;;;5.97;4.47;;;;;;;8.39;99.69;102009.09;1733088;82;20986;-54
2021/09/29 01:04:31;;;;;;;5.97;4.22;;;;;;;8.38;99.71;102010.83;1733206;82;20915;-54
2021/09/29 01:07:20;;;;;;;6.92;4.03;;;;;;;8.39;99.59;102016.84;1733008;82;21041;-54
2021/09/29 01:10:16;;;;;;;6.50;4.20;;;;;;;8.38;99.58;102016.39;1733451;82;21081;-54
2021/09/29 01:13:04;;;;;;;4.00;3.58;;;;;;;8.37;99.56;102014.25;1720679;81;21187;-52
2021/09/29 01:17:12;;;;;;;4.42;3.75;;;;;;;8.41;99.58;102019.91;1883121;75;22459;-52
2021/09/29 01:20:07;;;;;;;6.20;4.00;;;;;;;8.36;99.59;102016.80;1859755;77;20904;-53
2021/09/29 01:23:04;;;;;;;4.45;3.58;;;;;;;8.36;99.57;102020.26;1859602;77;21121;-53
2021/09/29 01:25:54;;;;;;;;;;;;;;;8.34;99.53;102027.96;1862512;77;20963;-54
2021/09/29 01:28:25;;;;;;;4.28;3.98;;;;;;;8.34;99.56;102021.52;1859932;77;20990;-54
2021/09/29 01:30:53;;;;;;;6.08;3.87;;;;;;;8.31;99.53;102018.00;1859604;77;21464;-54
2021/09/29 01:33:21;;;;;;;5.35;3.83;;;;;;;8.29;99.56;102019.69;1859892;77;20920;-54
2021/09/29 01:35:48;;;;;;;5.33;3.60;;;;;;;8.27;99.61;102018.80;1859872;77;21191;-54
2021/09/29 01:38:14;;;;;;;8.30;3.90;;;;;;;8.25;99.63;102018.80;1859752;77;20963;-54
2021/09/29 01:40:41;;;;;;;5.20;3.70;;;;;;;8.25;99.61;102021.38;1859618;77;21046;-54
2021/09/29 01:43:07;;;;;;;4.12;3.83;;;;;;;8.24;99.56;102023.51;1859727;77;20958;-54
2021/09/29 01:45:36;;;;;;;8.75;3.50;;;;;;;8.22;99.58;102020.04;1859712;77;20947;-54
2021/09/29 01:48:03;;;;;;;9.40;3.80;;;;;;;8.21;99.60;102020.88;1859972;77;21107;-54
2021/09/29 01:50:30;;;;;;;7.62;3.60;;;;;;;8.21;99.60;102028.62;1859669;77;20903;-52
2021/09/29 01:52:58;;;;;;;4.62;3.92;;;;;;;8.20;99.61;102025.16;1859519;77;21021;-51
2021/09/29 01:55:25;;;;;;;4.58;4.17;;;;;;;8.20;99.60;102026.86;1859697;77;20990;-52
2021/09/29 01:57:52;;;;;;;5.20;3.60;;;;;;;8.19;99.65;102031.56;1854188;77;21540;-52
2021/09/29 02:00:19;;;;;;;5.97;3.55;;;;;;;8.17;99.65;102033.26;1852459;77;21204;-53
2021/09/29 02:02:47;;;;;;;10.23;3.90;;;;;;;8.15;99.70;102033.66;1852210;77;20956;-54
2021/09/29 02:05:13;;;;;;;12.50;3.90;;;;;;;8.15;99.62;102037.12;1852490;77;20917;-54
2021/09/29 02:07:40;;;;;;;3.87;3.55;;;;;;;8.15;99.63;102033.66;1852468;77;20929;-54
2021/09/29 02:10:10;;;;;;;5.37;3.47;;;;;;;8.16;99.52;102040.55;1852500;77;20894;-54
2021/09/29 02:12:37;;;;;;;6.65;4.12;;;;;;;8.15;99.41;102043.97;1852919;77;21038;-54
2021/09/29 02:15:05;;;;;;;6.50;3.70;;;;;;;8.15;99.26;102043.57;1852685;77;20988;-54
2021/09/29 02:17:32;;;;;;;3.55;3.27;;;;;;;8.17;99.02;102048.73;1850660;77;21514;-54
2021/09/29 02:19:59;;;;;;;5.08;3.30;;;;;;;8.17;98.85;102052.20;1850887;77;20929;-54
2021/09/29 02:22:25;;;;;;;7.35;3.30;;;;;;;8.16;98.70;102054.73;1850782;77;20949;-54
2021/09/29 02:24:51;;;;;;;4.87;4.05;;;;;;;8.17;98.61;102057.77;1850406;77;21903;-54
2021/09/29 02:27:18;;;;;;;4.37;3.70;;;;;;;8.15;98.56;102060.73;1850232;77;21518;-53
2021/09/29 02:29:44;;;;;;;8.40;4.40;;;;;;;8.16;98.52;102067.64;1849964;77;21456;-54
2021/09/29 02:32:11;;;;;;;4.47;3.80;;;;;;;8.17;98.45;102068.08;1849865;77;21490;-54
2021/09/29 02:34:37;;;;;;;5.70;3.30;;;;;;;8.18;98.38;102067.23;1824022;77;20953;-53
2021/09/29 02:37:05;;;;;;;7.83;3.70;;;;;;;8.19;98.36;102065.11;1850046;77;21128;-54
2021/09/29 02:39:33;;;;;;;4.80;3.40;;;;;;;8.18;98.30;102068.13;1850041;77;20913;-54
2021/09/29 02:42:00;;;;;;;3.65;3.33;;;;;;;8.18;98.21;102073.28;1849994;77;21040;-54
2021/09/29 02:44:26;;;;;;;9.58;3.58;;;;;;;8.18;98.06;102074.98;1850075;76;20898;-53
2021/09/29 02:46:53;;;;;;;5.37;3.58;;;;;;;8.18;97.95;102077.56;1849986;76;20973;-54
2021/09/29 02:49:19;;;;;;;6.17;3.67;;;;;;;8.16;97.78;102071.50;1850264;77;21139;-54
2021/09/29 02:51:46;;;;;;;8.88;4.00;;;;;;;8.14;97.74;102070.61;1850318;77;21024;-54
2021/09/29 02:54:12;;;;;;;5.92;3.67;;;;;;;8.12;97.70;102073.19;1849972;77;20905;-54
2021/09/29 02:56:39;;;;;;;4.15;3.83;;;;;;;8.10;97.69;102068.42;1849847;77;20984;-54
2021/09/29 02:59:09;;;;;;;9.93;3.65;;;;;;;8.09;97.68;102080.87;1849934;76;20918;-54
2021/09/29 03:01:35;;;;;;;3.65;3.35;;;;;;;8.08;97.63;102082.97;1849820;77;21233;-54
2021/09/29 03:04:02;;;;;;;3.55;3.25;;;;;;;8.07;97.70;102087.68;1823581;77;20878;-54
2021/09/29 03:06:28;;;;;;;7.85;4.00;;;;;;;8.08;97.72;102089.42;1850070;77;20988;-53
2021/09/29 03:08:55;;;;;;;4.42;3.77;;;;;;;8.08;97.84;102098.88;1849887;76;20996;-54
2021/09/29 03:11:22;;;;;;;4.50;4.10;;;;;;;8.08;97.95;102102.31;1850018;77;21030;-54
2021/09/29 03:13:49;;;;;;;3.90;3.60;;;;;;;8.10;97.96;102099.78;1850066;77;21127;-54
2021/09/29 03:16:16;;;;;;;5.47;3.42;;;;;;;8.10;97.88;102103.24;1851735;77;21561;-54
2021/09/29 03:18:43;;;;;;;3.85;3.45;;;;;;;8.10;97.86;102103.64;1855698;77;20976;-54
2021/09/29 03:21:11;;;;;;;7.20;3.75;;;;;;;8.09;97.81;102104.09;1855618;77;21407;-52
2021/09/29 03:23:38;;;;;;;4.05;3.75;;;;;;;8.05;97.80;102101.86;1855731;77;21470;-52
2021/09/29 03:26:04;;;;;;;5.03;4.15;;;;;;;8.01;97.72;102107.80;1855775;77;21965;-51
2021/09/29 03:28:32;;;;;;;5.80;3.72;;;;;;;7.98;97.70;102109.04;1855651;77;20991;-52
2021/09/29 03:31:00;;;;;;;10.88;3.58;;;;;;;7.95;97.68;102111.53;1855660;77;20874;-52
2021/09/29 03:33:26;;;;;;;3.37;3.08;;;;;;;7.90;97.69;102111.47;1855537;77;20999;-52
2021/09/29 03:35:52;;;;;;;8.75;3.47;;;;;;;7.84;97.73;102121.67;1855855;77;21062;-52
2021/09/29 03:38:19;;;;;;;3.72;3.37;;;;;;;7.80;97.83;102117.70;1829426;77;21719;-52
2021/09/29 03:40:46;;;;;;;4.12;3.58;;;;;;;7.74;97.94;102118.44;1855726;77;20960;-53
2021/09/29 03:43:12;;;;;;;4.47;3.62;;;;;;;7.70;97.96;102119.22;1855825;77;21506;-51
2021/09/29 03:45:39;;;;;;;3.87;3.58;;;;;;;7.65;97.94;102128.14;1829640;77;21483;-52
2021/09/29 03:48:05;;;;;;;3.98;3.67;;;;;;;7.59;98.05;102129.31;1829444;77;21485;-52
2021/09/29 03:50:32;;;;;;;3.70;3.40;;;;;;;7.54;98.24;102125.34;1855494;77;21089;-52
2021/09/29 03:52:59;;;;;;;4.03;3.72;;;;;;;7.48;98.35;102124.82;1855543;77;20917;-53
2021/09/29 03:55:26;;;;;;;4.83;4.08;;;;;;;7.44;98.56;102132.44;1855637;77;20913;-52
2021/09/29 03:57:52;;;;;;;4.37;4.03;;;;;;;7.39;98.74;102136.20;1855402;77;20920;-52
2021/09/29 04:00:19;;;;;;;4.37;3.98;;;;;;;7.36;98.93;102134.84;1855917;77;21518;-52
2021/09/29 04:02:46;;;;;;;5.12;3.90;;;;;;;7.33;99.01;102131.80;1829718;77;21016;-52
2021/09/29 04:05:13;;;;;;;7.12;4.42;;;;;;;7.32;99.13;102134.33;1855557;77;21565;-52
2021/09/29 04:07:39;;;;;;;6.58;3.50;;;;;;;7.30;99.19;102142.02;1856036;77;20934;-52
2021/09/29 04:10:08;;;;;;;4.53;4.12;;;;;;;7.28;99.29;102142.83;1855691;77;21557;-52
2021/09/29 04:12:36;;;;;;;5.00;4.50;;;;;;;7.25;99.40;102141.48;1855852;77;20909;-52
2021/09/29 04:15:04;;;;;;;5.20;4.17;;;;;;;7.22;99.54;102147.86;1855395;77;21161;-52
2021/09/29 04:17:32;;;;;;;4.83;4.40;;;;;;;7.18;99.63;102150.34;1855232;77;20960;-52
2021/09/29 04:19:59;;;;;;;7.80;5.00;;;;;;;7.18;99.67;102149.48;1855397;77;21011;-52
2021/09/29 04:22:25;;;;;;;5.37;4.87;;;;;;;7.16;99.75;102150.72;1855623;77;21615;-52
2021/09/29 04:24:52;;;;;;;4.97;4.45;;;;;;;7.17;99.77;102153.75;1855574;77;21190;-53
2021/09/29 04:27:18;;;;;;;10.45;5.12;;;;;;;7.16;99.91;102159.73;1855646;77;21937;-52
2021/09/29 04:29:45;;;;;;;12.93;5.30;;;;;;;7.16;100.00;102164.03;1855584;77;20948;-52
2021/09/29 04:32:12;;;;;;;6.20;4.22;;;;;;;7.17;100.00;102166.63;1855895;77;21013;-52
2021/09/29 04:34:38;;;;;;;6.72;4.55;;;;;;;7.18;100.00;102168.36;1855504;77;20956;-52
2021/09/29 04:37:05;;;;;;;6.80;4.60;;;;;;;7.23;100.00;102165.05;1856029;77;20925;-52
2021/09/29 04:39:31;;;;;;;7.12;4.92;;;;;;;7.27;100.00;102164.28;1855431;77;21022;-52
2021/09/29 04:41:58;;;;;;;8.48;5.28;;;;;;;7.30;100.00;102166.48;1855805;77;21464;-52
2021/09/29 04:44:24;;;;;;;8.73;5.15;;;;;;;7.35;100.00;102170.90;1855680;77;21007;-52
2021/09/29 04:46:51;;;;;;;6.45;4.50;;;;;;;7.40;100.00;102166.27;1855732;77;20996;-52
2021/09/29 04:49:17;;;;;;;5.22;4.47;;;;;;;7.44;100.00;102171.95;1855826;77;20910;-53
2021/09/29 04:51:44;;;;;;;5.58;4.70;;;;;;;7.52;99.98;102169.98;1855559;77;21753;-52
2021/09/29 04:54:10;;;;;;;7.70;4.78;;;;;;;7.58;99.86;102163.66;1855754;77;20972;-52
2021/09/29 04:56:36;;;;;;;6.62;4.60;;;;;;;7.62;99.75;102167.62;1855501;77;20981;-52
2021/09/29 04:59:05;;;;;;;10.70;5.00;;;;;;;7.69;99.60;102167.75;1855510;77;20918;-52
2021/09/29 05:01:31;;;;;;;9.48;7.10;;;;;;;7.73;99.30;102174.30;1855265;77;21462;-52
2021/09/29 05:03:59;;;;;;;11.10;9.08;;;;;;;7.76;98.92;102175.66;1829577;77;21901;-52
2021/09/29 05:06:27;;;;;;;8.85;7.92;;;;;;;7.76;98.70;102174.77;1855628;77;21568;-52
2021/09/29 05:08:53;;;;;;;7.50;5.62;;;;;;;7.78;98.58;102167.08;1828988;77;20961;-52
2021/09/29 05:11:43;;;;;;;6.50;5.25;;;;;;;7.78;98.40;102170.51;1802473;77;21011;-52
2021/09/29 05:14:09;;;;;;;7.15;4.95;;;;;;;7.79;98.33;102177.84;1855720;77;20921;-52
2021/09/29 05:16:36;;;;;;;6.20;4.45;;;;;;;7.80;98.17;102173.13;1855721;77;21765;-52
2021/09/29 05:19:04;;;;;;;5.67;4.53;;;;;;;7.80;98.04;102175.27;1855698;77;20940;-52
2021/09/29 05:21:30;;;;;;;5.35;4.10;;;;;;;7.85;97.92;102177.95;1855792;77;21455;-52
2021/09/29 05:23:56;;;;;;;9.08;3.67;;;;;;;7.91;97.69;102184.12;1855536;77;21491;-53
2021/09/29 05:26:23;;;;;;;8.48;4.30;;;;;;;7.98;97.67;102181.25;1855768;77;21012;-52
2021/09/29 05:28:50;;;;;;;6.78;5.17;;;;;;;8.08;97.45;102176.27;1855707;77;21178;-52
2021/09/29 05:31:18;;;;;;;4.78;4.35;;;;;;;8.15;97.01;102180.28;1855245;77;21557;-52
2021/09/29 05:33:44;;;;;;;4.87;4.10;;;;;;;8.23;96.78;102172.70;1855603;77;20937;-52
2021/09/29 05:36:11;;;;;;;5.05;4.00;;;;;;;8.31;95.70;102175.39;1855672;77;20957;-52
2021/09/29 05:38:38;;;;;;;4.15;3.77;;;;;;;8.39;95.31;102169.09;1829212;77;20932;-53
2021/09/29 05:41:04;;;;;;;6.22;4.37;;;;;;;8.44;94.54;102176.08;1855569;77;20987;-54
2021/09/29 05:43:32;;;;;;;4.83;4.35;;;;;;;8.53;94.51;102178.40;1855490;77;21011;-52
2021/09/29 05:45:59;;;;;;;9.05;3.90;;;;;;;8.63;93.44;102178.59;1855567;77;20995;-52
2021/09/29 05:48:27;;;;;;;5.37;4.45;;;;;;;8.71;92.09;102165.81;1855565;77;20979;-52
2021/09/29 05:50:53;;;;;;;4.97;4.00;;;;;;;8.76;90.55;102177.52;1855580;77;20973;-52
2021/09/29 05:53:20;;;;;;;5.35;4.40;;;;;;;8.74;90.19;102179.21;1855545;77;21100;-52
2021/09/29 05:55:47;;;;;;;6.40;3.80;;;;;;;8.75;90.48;102178.37;1855521;77;20949;-52
2021/09/29 05:58:14;;;;;;;4.92;4.37;;;;;;;8.79;89.80;102177.56;1855551;77;21692;-52
2021/09/29 06:00:40;;;;;;;8.43;3.98;;;;;;;8.82;89.40;102178.91;1855729;77;21467;-52
2021/09/29 06:03:07;;;;;;;6.15;4.20;;;;;;;8.90;89.54;102185.49;1855581;77;20972;-52
2021/09/29 06:05:33;;;;;;;4.22;3.90;;;;;;;8.96;88.97;102176.95;1855894;77;21778;-53
2021/09/29 06:08:01;;;;;;;9.58;4.05;;;;;;;8.99;87.71;102180.46;1855754;77;21857;-52
2021/09/29 06:10:30;;;;;;;6.05;4.08;;;;;;;8.99;87.45;102179.61;1855714;77;21426;-53
2021/09/29 06:12:57;;;;;;;5.45;4.10;;;;;;;9.01;87.72;102177.48;1855797;77;21476;-52
2021/09/29 06:15:31;;;;;;;4.08;3.37;;;;;;;9.08;88.37;102178.86;1829345;77;21511;-52
2021/09/29 06:18:03;;;;;;;4.62;3.65;;;;;;;9.17;88.20;102188.06;1826127;77;21649;-52
2021/09/29 06:20:35;;;;;;;3.90;3.58;;;;;;;9.26;87.14;102189.91;1851806;77;20961;-52
2021/09/29 06:23:02;;;;;;;4.08;3.62;;;;;;;9.28;86.95;102192.09;1851800;77;21000;-53
2021/09/29 06:25:29;;;;;;;4.12;3.75;;;;;;;9.29;86.28;102188.66;1851741;77;21231;-52
2021/09/29 06:27:55;;;;;;;5.87;4.12;;;;;;;9.31;85.76;102189.55;1821045;77;21566;-52
2021/09/29 06:30:22;;;;;;;4.78;4.37;;;;;;;9.31;85.39;102191.70;1851740;77;21897;-52
2021/09/29 06:32:49;;;;;;;4.75;3.90;;;;;;;9.28;85.16;102194.68;1821177;77;20926;-52
2021/09/29 06:35:15;;;;;;;6.33;4.47;;;;;;;9.24;84.64;102195.48;1851805;77;20917;-52
2021/09/29 06:37:42;;;;;;;4.90;4.42;;;;;;;9.18;84.13;102197.55;1851728;77;20929;-52
2021/09/29 06:40:15;;;;;;;4.37;3.77;;;;;;;9.12;84.13;102191.00;1852059;77;20952;-52
2021/09/29 06:42:42;;;;;;;7.12;4.22;;;;;;;9.12;84.55;102194.88;1813951;77;20978;-52
2021/09/29 06:45:11;;;;;;;8.90;4.33;;;;;;;9.16;84.34;102201.39;1851725;77;20933;-52
2021/09/29 06:47:40;;;;;;;5.12;4.62;;;;;;;9.20;84.52;102201.88;1851962;77;20953;-52
2021/09/29 06:50:09;;;;;;;9.93;5.40;;;;;;;9.27;84.32;102203.28;1851727;77;21613;-52
2021/09/29 06:52:37;;;;;;;5.65;5.05;;;;;;;9.34;83.50;102212.86;1851808;77;20992;-53
2021/09/29 06:55:06;;;;;;;4.50;4.10;;;;;;;9.40;82.72;102209.06;1851801;77;21058;-53
2021/09/29 06:57:35;;;;;;;4.78;4.37;;;;;;;9.45;82.89;102213.02;1814722;77;21018;-52
2021/09/29 07:00:05;;;;;;;4.33;3.95;;;;;;;9.53;82.02;102215.27;1851572;77;20913;-53
2021/09/29 07:02:33;;;;;;;5.55;4.03;;;;;;;9.61;81.86;102214.09;1851698;77;20941;-52
2021/09/29 07:04:59;;;;;;;6.30;4.90;;;;;;;9.68;81.32;102218.48;1851797;77;20953;-53
2021/09/29 07:07:26;;;;;;;9.40;5.28;;;;;;;9.75;81.58;102215.16;1820893;77;21170;-53
2021/09/29 07:09:54;;;;;;;5.03;4.55;;;;;;;9.85;80.00;102213.56;1851799;77;20926;-53
2021/09/29 07:12:20;;;;;;;4.90;4.20;;;;;;;9.94;80.37;102214.08;1851903;77;21078;-53
2021/09/29 07:14:47;;;;;;;5.10;4.20;;;;;;;10.08;80.62;102215.53;1851639;77;20988;-52
2021/09/29 07:17:15;;;;;;;5.70;4.30;;;;;;;10.26;79.44;102214.02;1844921;77;21514;-53
2021/09/29 07:19:42;;;;;;;8.48;4.08;;;;;;;10.42;77.89;102218.55;1824411;78;21122;-52
2021/09/29 07:22:08;;;;;;;6.75;4.47;;;;;;;10.59;77.93;102214.83;1824383;77;20958;-53
2021/09/29 07:24:35;;;;;;;6.20;4.62;;;;;;;10.73;76.37;102210.19;1824443;77;21101;-52
2021/09/29 07:27:03;;;;;;;4.78;3.95;;;;;;;10.82;74.98;102218.05;1824474;78;20966;-53
2021/09/29 07:29:30;;;;;;;4.10;3.60;;;;;;;10.84;74.29;102217.64;1824516;77;21007;-52
2021/09/29 07:31:56;;;;;;;3.47;3.27;;;;;;;10.90;75.03;102215.09;1824592;77;21136;-53
2021/09/29 07:34:23;;;;;;;4.17;3.70;;;;;;;11.06;75.97;102217.81;1824465;78;20973;-53
2021/09/29 07:36:50;;;;;;;9.55;4.25;;;;;;;11.27;74.04;102216.24;1824395;77;20978;-53
2021/09/29 07:39:17;;;;;;;4.72;3.80;;;;;;;11.41;72.31;102215.03;1824356;78;20939;-53
2021/09/29 07:41:44;;;;;;;6.45;4.00;;;;;;;11.49;70.49;102210.34;1824490;78;20966;-53
2021/09/29 07:44:11;;;;;;;6.83;3.80;;;;;;;11.42;69.74;102214.17;1824430;78;21107;-52
2021/09/29 07:46:38;;;;;;;4.97;3.58;;;;;;;11.30;70.79;102212.38;1796403;78;20903;-53
2021/09/29 07:49:04;;;;;;;6.47;3.80;;;;;;;11.33;70.83;102217.57;1824504;78;20941;-53
2021/09/29 09:29:51;;;;;;;;;;;;;;;13.88;58.68;102229.64;1827044;78;21515;-53
2021/09/29 09:32:23;;;;;;;5.70;3.42;;;;;;;13.59;58.49;102231.45;1831095;78;20111;-52
2021/09/29 09:35:13;;;;;;;4.53;3.90;;;;;;;13.39;59.47;102230.19;1807963;77;20978;-52
2021/09/29 09:37:39;;;;;;;13.00;3.47;;;;;;;13.23;59.88;102235.84;1829593;78;20954;-52
2021/09/29 09:40:11;;;;;;;4.08;3.77;;;;;;;13.08;60.78;102236.28;1830886;77;21114;-52
2021/09/29 09:42:48;;;;;;;3.45;3.25;;;;;;;13.06;60.64;102239.31;1830753;78;21444;-52
2021/09/29 09:45:19;;;;;;;4.30;3.00;;;;;;;12.90;61.16;102237.16;1831037;77;20934;-52
2021/09/29 09:47:47;;;;;;;7.55;3.72;;;;;;;12.73;62.07;102233.67;1831168;77;20997;-52
2021/09/29 09:50:28;;;;;;;4.97;2.98;;;;;;;12.68;62.58;102237.59;1831458;78;20946;-53
2021/09/29 09:52:56;;;;;;;3.58;3.22;;;;;;;12.62;61.95;102244.93;1831520;78;21076;-52
2021/09/29 09:55:25;;;;;;;4.37;3.98;;;;;;;12.53;62.53;102238.44;1808093;78;20961;-52
2021/09/29 09:57:57;;;;;;;4.15;3.62;;;;;;;12.43;62.70;102244.45;1831123;77;21464;-52
2021/09/29 10:00:27;;;;;;;4.37;3.37;;;;;;;12.41;63.78;102242.29;1831300;77;20926;-52
2021/09/29 10:02:56;;;;;;;9.45;3.00;;;;;;;12.45;63.76;102238.41;1831170;78;20891;-52
2021/09/29 10:05:27;;;;;;;5.35;3.00;;;;;;;12.57;63.83;102244.06;1831104;78;22420;-52
2021/09/29 10:07:53;;;;;;;3.12;2.92;;;;;;;12.65;62.95;102242.33;1831162;78;21519;-52
2021/09/29 10:10:49;;;;;;;3.52;3.22;;;;;;;12.68;61.78;102236.28;1831209;77;20954;-52
2021/09/29 10:27:18;;;;;;;4.87;3.22;;;;;;;12.79;60.69;102233.70;1807903;78;20954;-52
2021/09/29 10:30:12;;;;;;;7.17;2.90;;;;;;;12.75;59.75;102231.52;1832856;77;20938;-52
2021/09/29 10:32:44;;;;;;;3.33;3.10;;;;;;;12.67;59.68;102233.25;1842915;77;21054;-52
2021/09/29 10:43:05;;;;;;;5.55;2.62;;;;;;;12.46;61.34;102232.35;1840738;77;21004;-52
2021/09/29 10:48:22;;;;;;;4.47;2.47;;;;;;;12.42;60.91;102228.44;1842597;77;21543;-52
2021/09/29 11:09:54;;;;;;;;;;;;;;;11.89;61.92;102224.34;1845526;77;20949;-52
2021/09/29 11:31:27;;;;;;;4.60;2.90;;;;;;;11.67;62.09;102223.39;1835367;77;21061;-53
2021/09/29 11:34:00;;;;;;;3.05;2.77;;;;;;;11.58;62.10;102222.91;1825971;78;20911;-53
2021/09/29 12:09:33;;;;;;;7.37;3.75;;;;;;;11.21;62.42;102217.06;1799454;78;20978;-53
2021/09/29 12:12:19;;;;;;;6.80;4.05;;;;;;;11.19;62.24;102223.52;1831281;78;20974;-52
2021/09/29 12:14:54;;;;;;;5.50;3.65;;;;;;;11.20;62.25;102222.66;1831683;78;21434;-53
2021/09/29 12:17:23;;;;;;;3.77;3.45;;;;;;;11.17;61.16;102220.05;1830071;78;21566;-53
2021/09/29 12:19:54;;;;;;;5.15;3.22;;;;;;;11.17;60.74;102226.97;1832093;78;21043;-52
2021/09/29 12:22:20;;;;;;;8.98;3.27;;;;;;;11.14;61.31;102222.62;1831539;78;20919;-53
2021/09/29 12:24:59;;;;;;;4.58;3.00;;;;;;;11.15;61.30;102224.35;1799388;77;20993;-53
2021/09/29 12:27:41;;;;;;;4.97;2.98;;;;;;;11.16;61.68;102221.34;1752333;78;21574;-52
2021/09/29 12:30:37;;;;;;;9.13;3.35;;;;;;;11.20;61.13;102225.25;1829872;78;20970;-52
2021/09/29 12:33:12;;;;;;;6.90;3.20;;;;;;;11.25;61.69;102221.41;1830810;78;21156;-53
2021/09/29 12:35:44;;;;;;;3.67;2.77;;;;;;;11.32;62.12;102219.73;1830458;78;21504;-52
2021/09/29 12:38:12;;;;;;;3.50;3.05;;;;;;;11.36;61.41;102221.03;1807823;78;20930;-53
2021/09/29 12:40:41;;;;;;;3.65;2.62;;;;;;;11.41;61.58;102226.25;1807850;78;20922;-52
2021/09/29 12:43:12;;;;;;;6.08;3.40;;;;;;;11.45;61.39;102221.97;1808247;78;20961;-52
2021/09/29 12:45:46;;;;;;;4.10;3.27;;;;;;;11.48;60.47;102224.13;1831031;78;21142;-53
2021/09/29 12:48:13;;;;;;;3.80;2.58;;;;;;;11.50;60.54;102217.26;1831024;77;21531;-52
2021/09/29 12:53:23;;;;;;;5.37;3.85;;;;;;;11.61;59.98;102220.33;1807968;78;20969;-53
2021/09/29 12:58:31;;;;;;;7.35;2.77;;;;;;;11.62;58.96;102218.17;1831280;77;21139;-52
2021/09/29 13:00:59;;;;;;;6.90;3.22;;;;;;;11.61;59.19;102214.69;1831060;78;20977;-53
2021/09/29 13:03:27;;;;;;;3.22;2.80;;;;;;;11.62;59.58;102219.47;1830984;78;21479;-52
2021/09/29 13:05:55;;;;;;;2.58;2.45;;;;;;;11.65;59.58;102222.07;1808013;78;20958;-52
2021/09/29 13:08:24;;;;;;;3.10;2.80;;;;;;;11.67;58.81;102214.31;1829835;77;20917;-52
2021/09/29 13:10:50;;;;;;;6.83;3.83;;;;;;;11.67;59.14;102218.20;1808116;78;21035;-52
2021/09/29 13:13:17;;;;;;;5.08;2.87;;;;;;;11.67;58.59;102220.34;1808225;78;21458;-52
2021/09/29 13:15:46;;;;;;;3.27;2.98;;;;;;;11.65;58.76;102215.59;1831170;77;21494;-52
2021/09/29 13:18:28;;;;;;;3.80;3.50;;;;;;;11.66;59.01;102219.06;1830914;78;21005;-53
2021/09/29 13:20:55;;;;;;;;;;;;;;;11.68;58.99;102218.19;1832604;78;21174;-52
2021/09/29 13:23:38;;;;;;;4.15;3.85;;;;;;;11.73;58.36;102212.59;1830146;78;21106;-51
2021/09/29 13:38:09;;;;;;;3.17;2.40;;;;;;;11.69;58.46;102214.73;1757204;80;21007;-53
2021/09/29 13:40:40;;;;;;;4.17;2.80;;;;;;;11.70;58.29;102212.58;1757074;81;21207;-53
2021/09/29 13:43:06;;;;;;;3.75;2.77;;;;;;;11.69;57.48;102213.44;1757150;80;20948;-53
2021/09/29 13:45:34;;;;;;;4.28;2.75;;;;;;;11.68;57.13;102218.19;1757316;81;21473;-53
2021/09/29 13:48:01;;;;;;;5.37;2.30;;;;;;;11.60;57.45;102220.74;1757240;81;21502;-53
2021/09/29 13:50:29;;;;;;;2.60;2.40;;;;;;;11.55;57.70;102222.89;1757445;81;21414;-53
2021/09/29 13:52:56;;;;;;;2.70;2.47;;;;;;;11.48;57.95;102220.24;1757080;81;21734;-53
2021/09/29 13:55:25;;;;;;;4.33;2.40;;;;;;;11.43;58.55;102224.54;1757051;81;20948;-53
2021/09/29 13:58:00;;;;;;;2.50;2.08;;;;;;;11.44;58.59;102227.56;1755118;81;20960;-53
2021/09/29 14:00:28;;;;;;;4.37;2.58;;;;;;;11.37;57.61;102228.39;1747909;82;21569;-52
2021/09/29 14:03:06;;;;;;;6.45;3.22;;;;;;;11.33;58.19;102225.34;1748572;82;20991;-52
2021/09/29 14:32:59;;;;;;;3.42;3.12;;;;;;;10.22;63.86;102267.45;1719422;80;21153;-52
2021/09/29 14:35:24;;;;;;;7.90;3.90;;;;;;;10.15;64.53;102268.23;1737385;81;20917;-53
2021/09/29 14:37:51;;;;;;;4.05;3.65;;;;;;;10.06;64.70;102265.98;1715256;82;20962;-53
2021/09/29 14:40:23;;;;;;;8.65;3.90;;;;;;;10.00;64.77;102268.50;1735784;82;20933;-53
2021/09/29 14:42:51;;;;;;;5.37;4.87;;;;;;;9.94;65.34;102272.28;1735907;82;21581;-52
2021/09/29 14:45:19;;;;;;;5.75;4.22;;;;;;;9.89;65.51;102271.36;1735571;82;21795;-53
2021/09/29 14:47:47;;;;;;;9.30;4.72;;;;;;;9.81;65.98;102272.98;1735237;82;20980;-52
2021/09/29 14:50:14;;;;;;;5.42;4.10;;;;;;;9.74;66.24;102272.91;1735207;82;20972;-52
2021/09/29 14:52:40;;;;;;;10.05;4.92;;;;;;;9.71;66.46;102278.45;1735295;81;20992;-52
2021/09/29 14:55:08;;;;;;;7.92;4.50;;;;;;;9.66;66.54;102282.69;1735310;82;20941;-52
2021/09/29 14:57:35;;;;;;;7.28;4.22;;;;;;;9.62;66.73;102277.88;1735540;82;21759;-53
2021/09/29 15:00:04;;;;;;;5.30;4.17;;;;;;;9.57;67.08;102271.78;1735248;81;20929;-53
2021/09/29 15:02:30;;;;;;;5.55;4.20;;;;;;;9.50;67.24;102277.28;1735039;82;20992;-53
2021/09/29 15:04:57;;;;;;;7.67;5.35;;;;;;;9.42;67.35;102281.03;1735278;82;20933;-52
2021/09/29 15:07:24;;;;;;;5.70;4.10;;;;;;;9.37;67.52;102281.83;1735224;81;21604;-53
2021/09/29 15:09:51;;;;;;;5.95;4.62;;;;;;;9.28;67.77;102281.25;1714190;82;21534;-53
2021/09/29 15:12:18;;;;;;;15.48;4.37;;;;;;;9.20;68.39;102284.56;1714121;82;20959;-52
2021/09/29 15:14:52;;;;;;;6.70;4.78;;;;;;;9.12;68.82;102291.77;1735276;82;21003;-52
2021/09/29 15:17:19;;;;;;;12.55;5.72;;;;;;;9.04;69.42;102292.92;1734762;82;20929;-52
2021/09/29 15:19:47;;;;;;;12.37;5.50;;;;;;;8.95;69.67;102294.02;1734628;82;21028;-53
2021/09/29 15:24:55;;;;;;;12.70;7.22;;;;;;;8.76;70.69;102298.44;1735419;82;21024;-52
2021/09/29 15:48:41;;;;;;;24.07;12.63;;;;;;;8.16;74.26;102321.73;1663521;84;21163;-52
2021/09/29 15:51:11;;;;;;;33.70;14.75;;;;;;;8.09;74.56;102323.73;1711578;82;21517;-52
2021/09/29 15:56:17;;;;;;;44.25;19.32;;;;;;;7.91;75.13;102319.91;1735155;82;20929;-52
2021/09/29 16:01:19;;;;;;;43.23;19.85;;;;;;;7.70;75.86;102330.17;1714232;82;24737;-52
2021/09/29 16:03:52;;;;;;;34.00;16.05;;;;;;;7.59;76.28;102330.34;1735003;82;20977;-52
2021/09/29 16:08:59;;;;;;;24.00;11.63;;;;;;;7.42;77.24;102330.80;1735131;81;21625;-52
2021/09/29 16:17:06;;;;;;;33.20;13.90;;;;;;;7.16;78.37;102336.59;1735160;82;20998;-52